createdAt,value
2018-05-17T00:00:04.164Z,0
2018-05-17T00:01:12.796Z,0
2018-05-17T00:02:21.442Z,0
2018-05-17T00:03:30.617Z,0
2018-05-17T00:04:39.269Z,0
2018-05-17T00:05:47.908Z,0
2018-05-17T00:06:56.544Z,0
2018-05-17T00:08:05.183Z,0
2018-05-17T00:09:13.824Z,0
2018-05-17T00:10:22.478Z,0
2018-05-17T00:11:31.649Z,0
2018-05-17T00:12:40.300Z,0
2018-05-17T00:13:48.933Z,0
2018-05-17T00:14:57.583Z,0
2018-05-17T00:16:06.492Z,0
2018-05-17T00:17:15.135Z,0
2018-05-17T00:18:23.773Z,0
2018-05-17T00:19:32.420Z,0
2018-05-17T00:20:41.059Z,0
2018-05-17T00:21:49.704Z,0
2018-05-17T00:22:58.342Z,0
2018-05-17T00:24:06.986Z,0
2018-05-17T00:25:15.890Z,0
2018-05-17T00:26:24.542Z,0
2018-05-17T00:27:33.713Z,0
2018-05-17T00:28:42.353Z,0
2018-05-17T00:29:50.995Z,0
2018-05-17T00:30:59.901Z,0
2018-05-17T00:32:08.547Z,0
2018-05-17T00:33:17.184Z,0
2018-05-17T00:34:25.829Z,0
2018-05-17T00:35:34.470Z,0
2018-05-17T00:36:43.118Z,0
2018-05-17T00:37:51.753Z,0
2018-05-17T00:39:00.669Z,0
2018-05-17T00:40:09.312Z,0
2018-05-17T00:41:18.219Z,0
2018-05-17T00:42:26.862Z,0
2018-05-17T00:43:35.503Z,0
2018-05-17T00:44:44.402Z,0
2018-05-17T00:45:53.042Z,0
2018-05-17T00:47:01.956Z,0
2018-05-17T00:48:10.597Z,0
2018-05-17T00:49:19.239Z,0
2018-05-17T00:50:27.877Z,0
2018-05-17T00:51:36.524Z,0
2018-05-17T00:52:45.165Z,0
2018-05-17T00:53:54.080Z,0
2018-05-17T00:55:02.732Z,0
2018-05-17T00:56:11.642Z,0
2018-05-17T00:57:20.284Z,0
2018-05-17T00:58:28.929Z,0
2018-05-17T00:59:37.836Z,0
2018-05-17T01:00:46.480Z,0
2018-05-17T01:01:55.389Z,0
2018-05-17T01:03:04.035Z,0
2018-05-17T01:04:12.681Z,0
2018-05-17T01:05:21.319Z,0
2018-05-17T01:06:29.961Z,0
2018-05-17T01:07:38.603Z,0
2018-05-17T01:08:47.246Z,0
2018-05-17T01:09:55.890Z,0
2018-05-17T01:11:04.533Z,0
2018-05-17T01:12:13.175Z,0
2018-05-17T01:13:21.814Z,0
2018-05-17T01:14:30.461Z,0
2018-05-17T01:15:39.104Z,0
2018-05-17T01:16:48.015Z,0
2018-05-17T01:17:56.651Z,0
2018-05-17T01:19:05.297Z,0
2018-05-17T01:20:13.938Z,0
2018-05-17T01:21:22.581Z,0
2018-05-17T01:22:31.774Z,0
2018-05-17T01:23:40.412Z,0
2018-05-17T01:24:49.320Z,0
2018-05-17T01:25:57.963Z,0
2018-05-17T01:27:06.609Z,0
2018-05-17T01:28:15.244Z,0
2018-05-17T01:29:23.885Z,0
2018-05-17T01:30:32.790Z,0
2018-05-17T01:31:41.443Z,0
2018-05-17T01:32:50.082Z,0
2018-05-17T01:33:58.990Z,0
2018-05-17T01:35:08.399Z,0
2018-05-17T01:36:16.958Z,0
2018-05-17T01:37:25.600Z,0
2018-05-17T01:38:34.244Z,0
2018-05-17T01:39:42.885Z,0
2018-05-17T01:40:51.523Z,0
2018-05-17T01:42:00.174Z,0
2018-05-17T01:43:08.821Z,0
2018-05-17T01:44:17.467Z,0
2018-05-17T01:45:26.107Z,0
2018-05-17T01:46:34.754Z,0
2018-05-17T01:47:43.397Z,0
2018-05-17T01:48:52.042Z,0
2018-05-17T01:50:00.681Z,0
2018-05-17T01:51:09.595Z,0
2018-05-17T01:52:18.239Z,0
2018-05-17T01:53:26.885Z,0
2018-05-17T01:54:35.523Z,0
2018-05-17T01:55:44.165Z,0
2018-05-17T01:56:52.805Z,0
2018-05-17T01:58:01.721Z,0
2018-05-17T01:59:10.640Z,0
2018-05-17T02:00:19.271Z,0
2018-05-17T02:01:27.915Z,0
2018-05-17T02:02:36.558Z,0
2018-05-17T02:03:45.472Z,0
2018-05-17T02:04:54.109Z,0
2018-05-17T02:06:02.753Z,0
2018-05-17T02:07:11.659Z,0
2018-05-17T02:08:20.572Z,0
2018-05-17T02:09:29.215Z,0
2018-05-17T02:10:37.857Z,0
2018-05-17T02:11:46.499Z,0
2018-05-17T02:12:55.152Z,0
2018-05-17T02:14:03.792Z,0
2018-05-17T02:15:12.692Z,0
2018-05-17T02:16:21.331Z,0
2018-05-17T02:17:29.972Z,0
2018-05-17T02:18:38.887Z,0
2018-05-17T02:19:47.531Z,0
2018-05-17T02:20:56.443Z,0
2018-05-17T02:22:05.074Z,0
2018-05-17T02:23:13.727Z,0
2018-05-17T02:24:22.364Z,0
2018-05-17T02:25:31.009Z,0
2018-05-17T02:26:39.643Z,0
2018-05-17T02:27:48.294Z,0
2018-05-17T02:28:57.202Z,0
2018-05-17T02:30:05.855Z,0
2018-05-17T02:31:14.497Z,0
2018-05-17T02:32:23.144Z,0
2018-05-17T02:33:31.795Z,0
2018-05-17T02:34:40.715Z,0
2018-05-17T02:35:49.615Z,0
2018-05-17T02:36:58.515Z,0
2018-05-17T02:38:07.166Z,0
2018-05-17T02:39:16.078Z,0
2018-05-17T02:40:24.990Z,0
2018-05-17T02:41:33.888Z,0
2018-05-17T02:42:42.553Z,0
2018-05-17T02:43:51.459Z,0
2018-05-17T02:45:00.113Z,0
2018-05-17T02:46:09.283Z,0
2018-05-17T02:47:18.202Z,0
2018-05-17T02:48:26.843Z,0
2018-05-17T02:49:35.497Z,0
2018-05-17T02:50:44.144Z,0
2018-05-17T02:51:53.046Z,0
2018-05-17T02:53:01.687Z,0
2018-05-17T02:54:10.600Z,0
2018-05-17T02:55:19.764Z,0
2018-05-17T02:56:28.401Z,0
2018-05-17T02:57:37.236Z,0
2018-05-17T02:58:46.252Z,0
2018-05-17T02:59:54.877Z,0
2018-05-17T03:01:03.780Z,0
2018-05-17T03:02:13.029Z,4
2018-05-17T03:03:21.670Z,4
2018-05-17T03:04:30.319Z,4
2018-05-17T03:05:38.959Z,4
2018-05-17T03:06:47.604Z,4
2018-05-17T03:07:56.503Z,4
2018-05-17T03:09:05.154Z,4
2018-05-17T03:10:13.807Z,8
2018-05-17T03:11:22.461Z,8
2018-05-17T03:12:31.099Z,8
2018-05-17T03:13:39.736Z,8
2018-05-17T03:14:48.382Z,8
2018-05-17T03:15:57.018Z,8
2018-05-17T03:17:05.675Z,8
2018-05-17T03:18:14.302Z,12
2018-05-17T03:19:23.000Z,16
2018-05-17T03:20:31.588Z,16
2018-05-17T03:21:40.246Z,16
2018-05-17T03:22:48.883Z,20
2018-05-17T03:23:57.797Z,28
2018-05-17T03:25:06.435Z,28
2018-05-17T03:26:15.085Z,36
2018-05-17T03:27:23.724Z,40
2018-05-17T03:28:32.363Z,44
2018-05-17T03:29:41.004Z,48
2018-05-17T03:30:49.915Z,44
2018-05-17T03:31:58.568Z,48
2018-05-17T03:33:07.213Z,48
2018-05-17T03:34:15.860Z,56
2018-05-17T03:35:24.491Z,60
2018-05-17T03:36:33.414Z,68
2018-05-17T03:37:42.317Z,76
2018-05-17T03:38:51.225Z,88
2018-05-17T03:39:59.865Z,80
2018-05-17T03:41:08.522Z,88
2018-05-17T03:42:17.156Z,100
2018-05-17T03:43:25.804Z,104
2018-05-17T03:44:34.435Z,120
2018-05-17T03:45:43.080Z,116
2018-05-17T03:46:51.726Z,108
2018-05-17T03:48:00.371Z,124
2018-05-17T03:49:09.019Z,132
2018-05-17T03:50:17.651Z,132
2018-05-17T03:51:26.295Z,136
2018-05-17T03:52:34.935Z,136
2018-05-17T03:53:43.587Z,148
2018-05-17T03:54:52.222Z,156
2018-05-17T03:56:00.866Z,184
2018-05-17T03:57:09.777Z,180
2018-05-17T03:58:18.426Z,184
2018-05-17T03:59:27.057Z,188
2018-05-17T04:00:35.703Z,184
2018-05-17T04:01:44.339Z,192
2018-05-17T04:02:52.995Z,208
2018-05-17T04:04:02.158Z,232
2018-05-17T04:05:10.885Z,232
2018-05-17T04:06:19.437Z,252
2018-05-17T04:07:28.076Z,272
2018-05-17T04:08:36.740Z,312
2018-05-17T04:09:45.368Z,320
2018-05-17T04:10:54.008Z,344
2018-05-17T04:12:02.651Z,336
2018-05-17T04:13:11.296Z,336
2018-05-17T04:14:19.936Z,340
2018-05-17T04:15:28.580Z,356
2018-05-17T04:16:37.217Z,360
2018-05-17T04:17:45.864Z,364
2018-05-17T04:18:54.505Z,388
2018-05-17T04:20:03.150Z,400
2018-05-17T04:21:11.788Z,360
2018-05-17T04:22:20.430Z,328
2018-05-17T04:23:29.072Z,344
2018-05-17T04:24:37.716Z,384
2018-05-17T04:25:46.360Z,412
2018-05-17T04:26:54.999Z,388
2018-05-17T04:28:03.644Z,424
2018-05-17T04:29:12.341Z,432
2018-05-17T04:30:20.931Z,404
2018-05-17T04:31:29.569Z,388
2018-05-17T04:32:38.210Z,432
2018-05-17T04:33:46.855Z,564
2018-05-17T04:34:55.502Z,684
2018-05-17T04:36:04.143Z,612
2018-05-17T04:37:13.314Z,592
2018-05-17T04:38:21.954Z,672
2018-05-17T04:39:30.600Z,716
2018-05-17T04:40:39.245Z,800
2018-05-17T04:41:47.883Z,840
2018-05-17T04:42:56.523Z,804
2018-05-17T04:44:05.164Z,836
2018-05-17T04:45:14.075Z,944
2018-05-17T04:46:22.724Z,872
2018-05-17T04:47:31.355Z,816
2018-05-17T04:48:39.993Z,844
2018-05-17T04:49:48.640Z,940
2018-05-17T04:50:57.279Z,1000
2018-05-17T04:52:05.921Z,996
2018-05-17T04:53:14.830Z,1036
2018-05-17T04:54:23.471Z,1052
2018-05-17T04:55:32.110Z,1052
2018-05-17T04:56:40.753Z,1084
2018-05-17T04:57:49.390Z,1188
2018-05-17T04:58:58.036Z,1360
2018-05-17T05:00:06.953Z,1564
2018-05-17T05:01:15.600Z,1656
2018-05-17T05:02:24.246Z,1644
2018-05-17T05:03:32.885Z,1536
2018-05-17T05:04:41.528Z,1508
2018-05-17T05:05:50.170Z,1568
2018-05-17T05:06:58.818Z,1752
2018-05-17T05:08:07.458Z,1572
2018-05-17T05:09:16.102Z,1300
2018-05-17T05:10:24.744Z,1284
2018-05-17T05:11:33.381Z,1376
2018-05-17T05:12:42.293Z,1388
2018-05-17T05:13:50.934Z,1476
2018-05-17T05:14:59.582Z,1528
2018-05-17T05:16:08.220Z,1516
2018-05-17T05:17:16.862Z,1644
2018-05-17T05:18:25.505Z,1632
2018-05-17T05:19:34.154Z,1696
2018-05-17T05:20:43.062Z,1788
2018-05-17T05:21:51.701Z,1972
2018-05-17T05:23:00.346Z,1864
2018-05-17T05:24:09.252Z,1704
2018-05-17T05:25:17.970Z,1696
2018-05-17T05:26:26.805Z,1776
2018-05-17T05:27:35.449Z,1668
2018-05-17T05:28:44.088Z,1572
2018-05-17T05:29:52.731Z,1728
2018-05-17T05:31:01.632Z,1748
2018-05-17T05:32:10.546Z,1680
2018-05-17T05:33:19.186Z,1672
2018-05-17T05:34:28.104Z,1804
2018-05-17T05:35:36.744Z,2052
2018-05-17T05:36:45.385Z,1872
2018-05-17T05:37:54.025Z,1708
2018-05-17T05:39:02.666Z,1740
2018-05-17T05:40:11.316Z,1672
2018-05-17T05:41:19.958Z,1808
2018-05-17T05:42:28.601Z,1908
2018-05-17T05:43:37.238Z,2012
2018-05-17T05:44:45.884Z,1828
2018-05-17T05:45:55.065Z,1940
2018-05-17T05:47:03.703Z,2120
2018-05-17T05:48:12.339Z,2284
2018-05-17T05:49:21.101Z,2224
2018-05-17T05:50:30.022Z,2192
2018-05-17T05:51:38.671Z,2148
2018-05-17T05:52:47.308Z,2052
2018-05-17T05:53:56.220Z,1964
2018-05-17T05:55:04.862Z,1984
2018-05-17T05:56:13.509Z,2384
2018-05-17T05:57:22.155Z,2552
2018-05-17T05:58:30.797Z,2984
2018-05-17T05:59:39.439Z,2732
2018-05-17T06:00:48.083Z,2500
2018-05-17T06:01:56.730Z,2524
2018-05-17T06:03:05.373Z,2916
2018-05-17T06:04:14.281Z,2896
2018-05-17T06:05:22.925Z,2256
2018-05-17T06:06:31.580Z,2304
2018-05-17T06:07:40.212Z,2504
2018-05-17T06:08:48.856Z,2792
2018-05-17T06:09:57.762Z,2520
2018-05-17T06:11:06.416Z,2256
2018-05-17T06:12:15.333Z,2292
2018-05-17T06:13:24.015Z,2552
2018-05-17T06:14:32.613Z,2616
2018-05-17T06:15:41.254Z,2432
2018-05-17T06:16:49.904Z,2544
2018-05-17T06:17:58.805Z,2672
2018-05-17T06:19:07.458Z,2904
2018-05-17T06:20:16.092Z,2736
2018-05-17T06:21:24.744Z,2692
2018-05-17T06:22:33.385Z,2916
2018-05-17T06:23:42.111Z,2504
2018-05-17T06:24:50.665Z,2364
2018-05-17T06:25:59.319Z,2404
2018-05-17T06:27:07.959Z,2396
2018-05-17T06:28:16.605Z,2528
2018-05-17T06:29:25.239Z,2664
2018-05-17T06:30:33.885Z,2844
2018-05-17T06:31:42.534Z,2976
2018-05-17T06:32:51.179Z,2996
2018-05-17T06:33:59.825Z,3024
2018-05-17T06:35:08.726Z,3084
2018-05-17T06:36:17.375Z,3384
2018-05-17T06:37:26.012Z,3268
2018-05-17T06:38:34.659Z,3292
2018-05-17T06:39:43.293Z,3428
2018-05-17T06:40:52.210Z,3472
2018-05-17T06:42:00.850Z,4184
2018-05-17T06:43:09.502Z,4564
2018-05-17T06:44:18.406Z,4508
2018-05-17T06:45:27.052Z,4564
2018-05-17T06:46:35.697Z,4348
2018-05-17T06:47:44.346Z,4112
2018-05-17T06:48:52.985Z,3640
2018-05-17T06:50:01.626Z,3964
2018-05-17T06:51:10.265Z,4236
2018-05-17T06:52:18.913Z,4588
2018-05-17T06:53:27.563Z,4960
2018-05-17T06:54:36.204Z,4652
2018-05-17T06:55:44.850Z,4512
2018-05-17T06:56:53.485Z,4592
2018-05-17T06:58:02.140Z,4268
2018-05-17T06:59:10.776Z,4372
2018-05-17T07:00:19.689Z,4516
2018-05-17T07:01:28.323Z,3856
2018-05-17T07:02:36.981Z,3872
2018-05-17T07:03:46.150Z,4328
2018-05-17T07:04:54.796Z,4100
2018-05-17T07:06:03.435Z,3884
2018-05-17T07:07:12.350Z,3984
2018-05-17T07:08:20.994Z,4004
2018-05-17T07:09:29.642Z,4084
2018-05-17T07:10:38.289Z,4544
2018-05-17T07:11:46.929Z,4592
2018-05-17T07:12:55.579Z,4288
2018-05-17T07:14:04.756Z,4380
2018-05-17T07:15:13.401Z,5612
2018-05-17T07:16:22.043Z,5684
2018-05-17T07:17:30.683Z,5352
2018-05-17T07:18:40.324Z,5664
2018-05-17T07:19:49.751Z,5208
2018-05-17T07:20:58.394Z,5420
2018-05-17T07:22:07.305Z,5996
2018-05-17T07:23:15.947Z,6028
2018-05-17T07:24:24.596Z,6408
2018-05-17T07:25:33.239Z,5444
2018-05-17T07:26:41.884Z,5792
2018-05-17T07:27:50.529Z,5404
2018-05-17T07:28:59.170Z,5740
2018-05-17T07:30:07.826Z,5952
2018-05-17T07:31:16.507Z,5700
2018-05-17T07:32:25.421Z,5224
2018-05-17T07:33:34.062Z,4636
2018-05-17T07:34:42.980Z,3592
2018-05-17T07:35:51.625Z,3328
2018-05-17T07:37:00.268Z,3716
2018-05-17T07:38:09.441Z,3888
2018-05-17T07:39:18.201Z,4000
2018-05-17T07:40:26.735Z,4868
2018-05-17T07:41:35.384Z,4580
2018-05-17T07:42:44.023Z,4460
2018-05-17T07:43:52.669Z,4636
2018-05-17T07:45:01.319Z,4532
2018-05-17T07:46:10.241Z,4620
2018-05-17T07:47:18.964Z,4600
2018-05-17T07:48:27.529Z,4572
2018-05-17T07:49:36.171Z,4172
2018-05-17T07:50:44.819Z,4080
2018-05-17T07:51:53.473Z,4456
2018-05-17T07:53:02.378Z,4980
2018-05-17T07:54:11.021Z,5156
2018-05-17T07:55:19.668Z,5212
2018-05-17T07:56:28.318Z,5148
2018-05-17T07:57:36.958Z,4632
2018-05-17T07:58:45.608Z,5216
2018-05-17T07:59:54.517Z,6012
2018-05-17T08:01:03.165Z,6472
2018-05-17T08:02:11.807Z,6440
2018-05-17T08:03:20.452Z,6248
2018-05-17T08:04:29.091Z,6568
2018-05-17T08:05:38.003Z,6480
2018-05-17T08:06:46.663Z,5696
2018-05-17T08:07:55.305Z,5700
2018-05-17T08:09:03.955Z,5980
2018-05-17T08:10:12.591Z,5976
2018-05-17T08:11:21.250Z,6528
2018-05-17T08:12:30.151Z,6644
2018-05-17T08:13:38.802Z,6004
2018-05-17T08:14:47.437Z,5352
2018-05-17T08:15:56.091Z,5236
2018-05-17T08:17:04.735Z,5708
2018-05-17T08:18:13.383Z,6112
2018-05-17T08:19:22.019Z,6508
2018-05-17T08:20:30.664Z,5988
2018-05-17T08:21:39.314Z,5896
2018-05-17T08:22:47.961Z,6136
2018-05-17T08:23:56.611Z,6508
2018-05-17T08:25:05.247Z,6404
2018-05-17T08:26:13.896Z,6252
2018-05-17T08:27:22.536Z,6192
2018-05-17T08:28:31.190Z,6376
2018-05-17T08:29:39.825Z,6260
2018-05-17T08:30:48.476Z,6024
2018-05-17T08:31:57.115Z,5996
2018-05-17T08:33:05.770Z,5312
2018-05-17T08:34:14.405Z,4860
2018-05-17T08:35:23.320Z,4948
2018-05-17T08:36:32.513Z,6372
2018-05-17T08:37:41.130Z,6708
2018-05-17T08:38:49.772Z,7100
2018-05-17T08:39:58.414Z,5560
2018-05-17T08:41:07.323Z,4372
2018-05-17T08:42:15.965Z,4772
2018-05-17T08:43:24.617Z,4452
2018-05-17T08:44:33.525Z,4324
2018-05-17T08:45:42.222Z,4448
2018-05-17T08:46:51.138Z,5036
2018-05-17T08:47:59.796Z,5684
2018-05-17T08:49:08.436Z,7380
2018-05-17T08:50:17.087Z,6760
2018-05-17T08:51:25.722Z,5680
2018-05-17T08:52:34.377Z,6404
2018-05-17T08:53:43.022Z,6864
2018-05-17T08:54:51.670Z,6684
2018-05-17T08:56:00.308Z,6440
2018-05-17T08:57:08.957Z,5652
2018-05-17T08:58:17.610Z,5080
2018-05-17T08:59:26.256Z,3984
2018-05-17T09:00:34.905Z,2544
2018-05-17T09:01:43.800Z,3292
2018-05-17T09:02:52.454Z,3144
2018-05-17T09:04:01.104Z,3092
2018-05-17T09:05:09.742Z,3060
2018-05-17T09:06:18.459Z,3072
2018-05-17T09:07:27.040Z,3088
2018-05-17T09:08:35.693Z,3148
2018-05-17T09:09:44.336Z,3164
2018-05-17T09:10:53.005Z,3232
2018-05-17T09:12:01.659Z,3616
2018-05-17T09:13:10.575Z,3612
2018-05-17T09:14:19.209Z,3208
2018-05-17T09:15:27.857Z,3524
2018-05-17T09:16:36.510Z,3324
2018-05-17T09:17:45.155Z,3332
2018-05-17T09:18:53.808Z,3320
2018-05-17T09:20:02.445Z,2416
2018-05-17T09:21:11.100Z,3184
2018-05-17T09:22:19.743Z,3468
2018-05-17T09:23:28.662Z,3764
2018-05-17T09:24:37.304Z,4500
2018-05-17T09:25:46.487Z,4292
2018-05-17T09:26:55.130Z,4464
2018-05-17T09:28:04.053Z,4696
2018-05-17T09:29:13.100Z,5188
2018-05-17T09:30:22.190Z,5148
2018-05-17T09:31:31.361Z,5568
2018-05-17T09:32:40.017Z,6268
2018-05-17T09:33:48.660Z,7360
2018-05-17T09:34:57.564Z,6984
2018-05-17T09:36:06.208Z,7284
2018-05-17T09:37:15.131Z,7384
2018-05-17T09:38:23.777Z,6200
2018-05-17T09:39:32.680Z,5864
2018-05-17T09:40:41.331Z,5180
2018-05-17T09:41:49.971Z,4440
2018-05-17T09:42:58.624Z,4396
2018-05-17T09:44:07.269Z,4784
2018-05-17T09:45:16.181Z,4524
2018-05-17T09:46:24.818Z,4520
2018-05-17T09:47:33.491Z,4208
2018-05-17T09:48:42.397Z,3616
2018-05-17T09:49:51.044Z,2972
2018-05-17T09:50:59.678Z,4232
2018-05-17T09:52:08.328Z,3660
2018-05-17T09:53:16.988Z,3452
2018-05-17T09:54:25.628Z,2780
2018-05-17T09:55:34.277Z,3336
2018-05-17T09:56:42.915Z,3436
2018-05-17T09:57:51.566Z,2892
2018-05-17T09:59:00.207Z,3204
2018-05-17T10:00:09.131Z,3132
2018-05-17T10:01:18.039Z,3216
2018-05-17T10:02:26.683Z,3244
2018-05-17T10:03:35.329Z,3224
2018-05-17T10:04:43.979Z,3216
2018-05-17T10:05:52.621Z,3176
2018-05-17T10:07:01.278Z,3160
2018-05-17T10:08:09.915Z,3340
2018-05-17T10:09:18.568Z,3488
2018-05-17T10:10:27.214Z,3620
2018-05-17T10:11:35.856Z,3724
2018-05-17T10:12:44.498Z,3984
2018-05-17T10:13:53.145Z,4200
2018-05-17T10:15:01.803Z,4420
2018-05-17T10:16:10.448Z,5028
2018-05-17T10:17:19.099Z,5012
2018-05-17T10:18:27.743Z,4508
2018-05-17T10:19:36.666Z,4124
2018-05-17T10:20:45.307Z,2796
2018-05-17T10:21:53.997Z,3700
2018-05-17T10:23:03.175Z,3492
2018-05-17T10:24:12.371Z,3408
2018-05-17T10:25:21.013Z,3476
2018-05-17T10:26:29.931Z,3592
2018-05-17T10:27:38.579Z,3528
2018-05-17T10:28:47.227Z,3372
2018-05-17T10:29:55.873Z,3380
2018-05-17T10:31:04.521Z,3360
2018-05-17T10:32:13.179Z,3292
2018-05-17T10:33:22.087Z,3240
2018-05-17T10:34:30.738Z,3312
2018-05-17T10:35:39.913Z,3316
2018-05-17T10:36:48.618Z,3316
2018-05-17T10:37:57.472Z,3380
2018-05-17T10:39:06.115Z,3508
2018-05-17T10:40:14.762Z,3516
2018-05-17T10:41:23.413Z,3192
2018-05-17T10:42:32.055Z,3536
2018-05-17T10:43:40.971Z,3324
2018-05-17T10:44:49.617Z,3728
2018-05-17T10:45:58.264Z,3568
2018-05-17T10:47:06.916Z,3492
2018-05-17T10:48:15.858Z,3192
2018-05-17T10:49:24.498Z,3468
2018-05-17T10:50:33.521Z,3424
2018-05-17T10:51:42.177Z,3328
2018-05-17T10:52:50.820Z,3352
2018-05-17T10:53:59.465Z,3356
2018-05-17T10:55:08.143Z,3376
2018-05-17T10:56:16.766Z,3152
2018-05-17T10:57:25.682Z,3348
2018-05-17T10:58:34.592Z,3388
2018-05-17T10:59:43.246Z,3360
2018-05-17T11:00:51.886Z,3376
2018-05-17T11:02:00.535Z,3336
2018-05-17T11:03:09.179Z,3336
2018-05-17T11:04:17.839Z,3364
2018-05-17T11:05:26.479Z,3400
2018-05-17T11:06:35.386Z,3416
2018-05-17T11:07:44.031Z,3392
2018-05-17T11:08:52.675Z,3392
2018-05-17T11:10:01.329Z,3392
2018-05-17T11:11:10.235Z,3408
2018-05-17T11:12:18.954Z,3448
2018-05-17T11:13:27.524Z,3468
2018-05-17T11:14:36.439Z,3684
2018-05-17T11:15:45.082Z,3892
2018-05-17T11:16:53.732Z,4036
2018-05-17T11:18:02.370Z,4160
2018-05-17T11:19:11.028Z,3996
2018-05-17T11:20:19.675Z,3708
2018-05-17T11:21:28.325Z,3476
2018-05-17T11:22:36.962Z,3444
2018-05-17T11:23:45.612Z,3396
2018-05-17T11:24:54.268Z,3420
2018-05-17T11:26:02.979Z,3412
2018-05-17T11:27:11.564Z,3408
2018-05-17T11:28:20.200Z,3404
2018-05-17T11:29:28.853Z,3392
2018-05-17T11:30:37.494Z,3372
2018-05-17T11:31:46.149Z,3400
2018-05-17T11:32:54.819Z,3412
2018-05-17T11:34:03.442Z,3400
2018-05-17T11:35:12.084Z,3416
2018-05-17T11:36:20.742Z,3396
2018-05-17T11:37:29.380Z,3428
2018-05-17T11:38:38.051Z,3428
2018-05-17T11:39:46.674Z,3416
2018-05-17T11:40:55.331Z,3424
2018-05-17T11:42:03.975Z,3432
2018-05-17T11:43:12.621Z,3464
2018-05-17T11:44:21.265Z,3488
2018-05-17T11:45:29.909Z,3456
2018-05-17T11:46:38.564Z,3488
2018-05-17T11:47:47.206Z,3484
2018-05-17T11:48:55.857Z,3448
2018-05-17T11:50:04.494Z,3472
2018-05-17T11:51:13.152Z,3368
2018-05-17T11:52:21.794Z,3440
2018-05-17T11:53:30.444Z,3432
2018-05-17T11:54:39.345Z,3456
2018-05-17T11:55:48.001Z,3472
2018-05-17T11:56:56.648Z,3460
2018-05-17T11:58:05.565Z,3456
2018-05-17T11:59:14.207Z,3444
2018-05-17T12:00:23.124Z,3460
2018-05-17T12:01:32.134Z,3416
2018-05-17T12:02:40.700Z,3432
2018-05-17T12:03:49.350Z,3448
2018-05-17T12:04:57.994Z,3432
2018-05-17T12:06:06.642Z,3400
2018-05-17T12:07:15.652Z,3484
2018-05-17T12:08:24.521Z,3492
2018-05-17T12:09:33.173Z,3520
2018-05-17T12:10:41.820Z,3512
2018-05-17T12:11:50.469Z,3492
2018-05-17T12:12:59.123Z,3460
2018-05-17T12:14:08.124Z,3432
2018-05-17T12:15:16.692Z,3428
2018-05-17T12:16:25.607Z,3400
2018-05-17T12:17:34.259Z,3400
2018-05-17T12:18:42.918Z,3376
2018-05-17T12:19:51.569Z,3392
2018-05-17T12:21:00.477Z,3376
2018-05-17T12:22:09.122Z,3448
2018-05-17T12:23:17.773Z,3432
2018-05-17T12:24:26.420Z,3508
2018-05-17T12:25:35.069Z,3444
2018-05-17T12:26:43.978Z,3304
2018-05-17T12:27:52.893Z,3484
2018-05-17T12:29:01.539Z,3384
2018-05-17T12:30:10.191Z,3492
2018-05-17T12:31:18.830Z,3532
2018-05-17T12:32:27.749Z,3568
2018-05-17T12:33:36.658Z,3572
2018-05-17T12:34:45.573Z,3580
2018-05-17T12:35:54.216Z,3580
2018-05-17T12:37:02.955Z,3612
2018-05-17T12:38:11.512Z,3628
2018-05-17T12:39:20.162Z,3580
2018-05-17T12:40:28.812Z,3508
2018-05-17T12:41:37.452Z,3252
2018-05-17T12:42:46.166Z,3436
2018-05-17T12:43:55.041Z,3448
2018-05-17T12:45:03.699Z,3452
2018-05-17T12:46:12.337Z,3496
2018-05-17T12:47:20.989Z,3712
2018-05-17T12:48:29.639Z,3752
2018-05-17T12:49:38.557Z,3664
2018-05-17T12:50:47.468Z,3576
2018-05-17T12:51:56.116Z,3556
2018-05-17T12:53:04.760Z,3528
2018-05-17T12:54:13.675Z,3516
2018-05-17T12:55:22.320Z,3468
2018-05-17T12:56:30.967Z,3424
2018-05-17T12:57:39.881Z,3500
2018-05-17T12:58:48.625Z,3532
2018-05-17T12:59:57.170Z,3548
2018-05-17T13:01:05.820Z,3564
2018-05-17T13:02:14.470Z,3588
2018-05-17T13:03:23.389Z,3620
2018-05-17T13:04:32.562Z,3612
2018-05-17T13:05:41.474Z,3676
2018-05-17T13:06:50.123Z,3684
2018-05-17T13:07:58.780Z,3684
2018-05-17T13:09:07.429Z,3656
2018-05-17T13:10:16.351Z,3576
2018-05-17T13:11:24.992Z,3672
2018-05-17T13:12:33.913Z,3636
2018-05-17T13:13:42.561Z,3688
2018-05-17T13:14:51.212Z,3664
2018-05-17T13:15:59.854Z,3676
2018-05-17T13:17:08.501Z,3688
2018-05-17T13:18:17.152Z,3736
2018-05-17T13:19:25.801Z,3740
2018-05-17T13:20:34.449Z,3792
2018-05-17T13:21:43.093Z,3760
2018-05-17T13:22:52.007Z,3692
2018-05-17T13:24:00.653Z,3728
2018-05-17T13:25:09.567Z,3660
2018-05-17T13:26:18.212Z,3672
2018-05-17T13:27:26.869Z,3692
2018-05-17T13:28:35.515Z,3664
2018-05-17T13:29:44.162Z,3660
2018-05-17T13:30:53.076Z,3696
2018-05-17T13:32:01.723Z,3684
2018-05-17T13:33:10.634Z,3664
2018-05-17T13:34:19.290Z,3672
2018-05-17T13:35:28.215Z,3676
2018-05-17T13:36:37.114Z,3660
2018-05-17T13:37:45.762Z,3648
2018-05-17T13:38:54.412Z,3668
2018-05-17T13:40:03.065Z,3676
2018-05-17T13:41:11.709Z,3700
2018-05-17T13:42:20.359Z,3712
2018-05-17T13:43:29.600Z,3688
2018-05-17T13:44:38.251Z,3672
2018-05-17T13:45:46.895Z,3664
2018-05-17T13:46:55.544Z,3656
2018-05-17T13:48:04.630Z,3624
2018-05-17T13:49:13.379Z,3596
2018-05-17T13:50:22.283Z,3596
2018-05-17T13:51:30.932Z,3624
2018-05-17T13:52:39.579Z,3616
2018-05-17T13:53:48.225Z,3616
2018-05-17T13:54:56.878Z,3632
2018-05-17T13:56:05.523Z,3612
2018-05-17T13:57:14.175Z,3536
2018-05-17T13:58:22.821Z,3480
2018-05-17T13:59:31.504Z,3432
2018-05-17T14:00:40.143Z,3432
2018-05-17T14:01:48.797Z,3456
2018-05-17T14:02:57.774Z,3428
2018-05-17T14:04:06.363Z,3440
2018-05-17T14:05:15.011Z,3516
2018-05-17T14:06:23.659Z,3380
2018-05-17T14:07:32.302Z,3352
2018-05-17T14:08:40.955Z,3332
2018-05-17T14:09:49.678Z,3308
2018-05-17T14:10:58.536Z,3272
2018-05-17T14:12:07.189Z,3252
2018-05-17T14:13:16.353Z,3240
2018-05-17T14:14:25.274Z,3220
2018-05-17T14:15:34.959Z,3248
2018-05-17T14:16:43.533Z,3244
2018-05-17T14:17:52.173Z,3264
2018-05-17T14:19:00.825Z,3180
2018-05-17T14:20:09.468Z,3080
2018-05-17T14:21:18.122Z,3080
2018-05-17T14:22:26.762Z,3076
2018-05-17T14:23:35.677Z,3092
2018-05-17T14:24:44.603Z,3092
2018-05-17T14:25:53.261Z,3096
2018-05-17T14:27:01.908Z,3076
2018-05-17T14:28:10.552Z,3108
2018-05-17T14:29:19.456Z,3088
2018-05-17T14:30:28.109Z,3044
2018-05-17T14:31:36.792Z,3040
2018-05-17T14:32:45.408Z,3048
2018-05-17T14:33:54.328Z,3008
2018-05-17T14:35:02.963Z,3012
2018-05-17T14:36:11.621Z,2980
2018-05-17T14:37:20.265Z,2960
2018-05-17T14:38:28.912Z,2912
2018-05-17T14:39:37.552Z,2924
2018-05-17T14:40:46.212Z,2932
2018-05-17T14:41:54.856Z,2940
2018-05-17T14:43:03.773Z,2908
2018-05-17T14:44:12.945Z,2912
2018-05-17T14:45:21.596Z,2916
2018-05-17T14:46:30.247Z,2920
2018-05-17T14:47:38.898Z,2908
2018-05-17T14:48:47.550Z,2924
2018-05-17T14:49:56.458Z,2876
2018-05-17T14:51:05.111Z,2848
2018-05-17T14:52:13.755Z,2808
2018-05-17T14:53:22.421Z,2772
2018-05-17T14:54:31.062Z,2744
2018-05-17T14:55:39.710Z,2708
2018-05-17T14:56:48.361Z,2736
2018-05-17T14:57:57.009Z,2720
2018-05-17T14:59:05.916Z,2692
2018-05-17T15:00:15.100Z,2452
2018-05-17T15:01:23.744Z,2684
2018-05-17T15:02:32.658Z,2616
2018-05-17T15:03:41.305Z,2392
2018-05-17T15:04:50.218Z,2528
2018-05-17T15:05:59.139Z,2332
2018-05-17T15:07:08.057Z,2672
2018-05-17T15:08:16.713Z,2648
2018-05-17T15:09:25.388Z,2696
2018-05-17T15:10:34.011Z,2696
2018-05-17T15:11:42.659Z,2724
2018-05-17T15:12:51.311Z,2756
2018-05-17T15:13:59.976Z,2832
2018-05-17T15:15:08.611Z,2972
2018-05-17T15:16:17.527Z,2944
2018-05-17T15:17:26.178Z,2844
2018-05-17T15:18:35.090Z,2664
2018-05-17T15:19:44.005Z,2584
2018-05-17T15:20:52.646Z,2564
2018-05-17T15:22:01.298Z,2592
2018-05-17T15:23:09.947Z,2636
2018-05-17T15:24:18.603Z,2640
2018-05-17T15:25:27.254Z,2600
2018-05-17T15:26:35.896Z,2580
2018-05-17T15:27:44.547Z,2612
2018-05-17T15:28:53.459Z,2632
2018-05-17T15:30:02.742Z,2636
2018-05-17T15:31:11.385Z,2660
2018-05-17T15:32:20.033Z,2680
2018-05-17T15:33:28.679Z,2696
2018-05-17T15:34:37.331Z,2696
2018-05-17T15:35:46.506Z,2700
2018-05-17T15:36:55.154Z,2716
2018-05-17T15:38:03.799Z,2748